KCNW

Tstc Waco Airport

Waco, Texas, USA
METAR KCNW 211455Z 17010G18KT 10SM SKC 04/00 A3019
Observed Flight Rules
Jan-21 @ 14:55 UTC (28 minutes ago) Visual Flight Rules
Wind Visibility Clouds
170° at 10 knots
 Gusting to 18 knots
10 miles
  • Clear skies
Temperatures Readings
Current 4°C / 39°F
Dewpoint 0°C / 32°F
Humidity 75%
Altimeter 30.19" Hg
Pressure 1022.32 hPa
Elevation 156
METAR KCNW 211455Z 17010G18KT 10SM SKC 04/00 A3019
Observed Flight Rules
Jan-21 @ 14:55 UTC
(28 minutes ago)
VFR
Wind Visibility
170° at 10 knots
 Gusting to 18 knots
10 miles
Clouds
  • Clear skies
Temperature Dewpoint
4°C / 39°F 0°C / 32°F
Humidity Altimeter Pressure
75% 30.19" Hg 1022.32 hPa